Buck Creek, IN (47924)

2:54 PM EDT on August 31, 2015 (GMT -0400)
FFR Cooperative | | Change Station
CLOSE
Current Station
Personal Weather Station
Location: Lafayette, IN
Elevation: 630 ft
Nearby Weather Stations

Elev 630 ft 40.48 °N, 86.81 °W | Updated 0 second ago

Mostly Cloudy
Mostly Cloudy
85.5 °F
Feels Like 91 °F
N
7.0
Wind Variable Wind from ESE
Gusts 8.0 mph

Today
High -- | Low -- °F
--% Chance of Precip.
Yesterday
High -- | Low -- °F
Precip. -- in
7:13 AM 8:20 PM
Waning Gibbous, 94% visible
Pressure 30.06 in
Visibility 10.0 miles
Clouds Scattered Clouds 7000 ft
Mostly Cloudy 8500 ft
Heat Index 91 °F
Dew Point 72 °F
Humidity 63%
Rainfall 0.00 in
Snow Depth Not available.
UV 5 out of 12
Pollen 10.80 out of 12
Air Quality Not available.
Flu Activity Not available.
METAR KLAF 311754Z 20007KT 10SM SCT070 BKN085 29/20 A3008 RMK AO2 SLP180 TCU E-SE T02940200 10300 20183 58009
Pressure 30.06 in
Visibility 10.0 miles
Clouds Scattered Clouds 7000 ft
Mostly Cloudy 8500 ft
Heat Index 91 °F
Dew Point 72 °F
Humidity 63%
Rainfall 0.00 in
Snow Depth Not available.
UV 5 out of 12
Pollen 10.80 out of 12
Air Quality Not available.
Flu Activity Not available.
METAR KLAF 311754Z 20007KT 10SM SCT070 BKN085 29/20 A3008 RMK AO2 SLP180 TCU E-SE T02940200 10300 20183 58009

10-Day Weather Forecast

×

Almanac

Astronomy

Aug. 31, 2015 Rise Set
Actual Time
Civil Twilight
Nautical Twilight
Astronomical Twilight
Moon
Length of Visible Light
Length of Day
Tomorrow will be .
, % of the Moon is Illuminated

Today's Extremes

State Highs State Lows

Community

WunderPhotos

Upload Photos

1,851,334 photos uploaded!

WunderBlogs® & News

Nearby

Air Quality

  Air Quality AQ Index Pollutant
Not available.

Snow Depth

Station Depth Elevation

Earthquake Activity

City Distance Mag. Time & Date
Minimum magnitude displayed is 2.5.

Coastal Water Temperatures

Place Temperature

Stations

Nearby Weather Stations

Station Location Temp. Windchill Dew Point Humidity Wind Precip. Elev Updated Type